EWG122 LFPG-EDDB
Flight info
| Callsign | EWG122 |
|---|---|
| Flight time | N/A |
| Altitude | 39000 |
| Route | RANUX DCT VALEK DCT LIPNI UN858 LIMGO DCT BITBU Z140 ODVUX DCT MASEK T278 KLF KLF1R |
| Aircraft | A20N/M-SDE2E3FGHIRWXY/LB1 |
Departure
| Time | 2026-05-08 20:03 |
|---|---|
| Airport | Charles de Gaulle International Airport (LFPG) |
Arrival
| Time | N/A |
|---|---|
| Airport | Berlin Brandenburg Airport (EDDB) |
| Time | Latitude | Longitude | Altitude | Speed | Heading |
|---|---|---|---|---|---|
| 2026-05-08 19:36 | 49.01491 | 2.53759 | 354 ft | 0 kts | 155° |
| 2026-05-08 19:46 | 49.01496 | 2.53755 | 354 ft | 7 kts | 155° |
| 2026-05-08 19:46 | 49.01630 | 2.53734 | 354 ft | 10 kts | 181° |
| 2026-05-08 19:47 | 49.01700 | 2.53751 | 361 ft | 9 kts | 215° |
| 2026-05-08 19:47 | 49.01708 | 2.53760 | 363 ft | 0 kts | 215° |
| 2026-05-08 19:49 | 49.01705 | 2.53758 | 363 ft | 4 kts | 212° |
| 2026-05-08 19:49 | 49.01616 | 2.53675 | 360 ft | 17 kts | 216° |
| 2026-05-08 19:49 | 49.01610 | 2.53595 | 358 ft | 2 kts | 335° |
| 2026-05-08 19:50 | 49.01635 | 2.53597 | 357 ft | 6 kts | 357° |
| 2026-05-08 19:50 | 49.01669 | 2.53593 | 362 ft | 2 kts | 355° |
| 2026-05-08 19:50 | 49.01670 | 2.53593 | 361 ft | 0 kts | 355° |
| 2026-05-08 19:51 | 49.01671 | 2.53593 | 361 ft | 1 kts | 355° |
| 2026-05-08 19:51 | 49.01676 | 2.53592 | 358 ft | 0 kts | 355° |
| 2026-05-08 19:55 | 49.01688 | 2.53590 | 361 ft | 10 kts | 355° |
| 2026-05-08 19:55 | 49.01766 | 2.53516 | 354 ft | 16 kts | 287° |
| 2026-05-08 19:56 | 49.01765 | 2.53331 | 354 ft | 19 kts | 266° |
| 2026-05-08 19:56 | 49.01754 | 2.53116 | 359 ft | 22 kts | 265° |
| 2026-05-08 19:56 | 49.01742 | 2.52871 | 360 ft | 24 kts | 265° |
| 2026-05-08 19:56 | 49.01727 | 2.52603 | 357 ft | 26 kts | 265° |
| 2026-05-08 19:57 | 49.01712 | 2.52327 | 360 ft | 26 kts | 265° |
| 2026-05-08 19:57 | 49.01753 | 2.52151 | 358 ft | 17 kts | 342° |
| 2026-05-08 19:57 | 49.01868 | 2.52126 | 354 ft | 13 kts | 355° |
| 2026-05-08 19:57 | 49.01928 | 2.52118 | 359 ft | 4 kts | 355° |
| 2026-05-08 19:58 | 49.01930 | 2.52118 | 361 ft | 0 kts | 355° |
| 2026-05-08 19:59 | 49.01936 | 2.52117 | 361 ft | 4 kts | 355° |
| 2026-05-08 19:59 | 49.01998 | 2.52110 | 357 ft | 1 kts | 355° |
| 2026-05-08 19:59 | 49.02003 | 2.52109 | 357 ft | 7 kts | 355° |
| 2026-05-08 20:00 | 49.02109 | 2.52201 | 356 ft | 19 kts | 82° |
| 2026-05-08 20:00 | 49.02114 | 2.52252 | 356 ft | 0 kts | 85° |
| 2026-05-08 20:02 | 49.02118 | 2.52318 | 357 ft | 29 kts | 84° |
| 2026-05-08 20:02 | 49.02154 | 2.52979 | 361 ft | 94 kts | 85° |
| 2026-05-08 20:02 | 49.02226 | 2.54240 | 355 ft | 142 kts | 84° |
| 2026-05-08 20:02 | 49.02320 | 2.55918 | 525 ft | 166 kts | 84° |
| 2026-05-08 20:03 | 49.02394 | 2.57642 | 809 ft | 163 kts | 85° |
| 2026-05-08 20:03 | 49.02482 | 2.59447 | 1129 ft | 176 kts | 84° |
| 2026-05-08 20:03 | 49.02579 | 2.61257 | 2091 ft | 166 kts | 84° |
| 2026-05-08 20:03 | 49.02681 | 2.63069 | 2765 ft | 181 kts | 85° |
| 2026-05-08 20:04 | 49.02797 | 2.65088 | 3294 ft | 201 kts | 85° |
| 2026-05-08 20:04 | 49.02924 | 2.67319 | 3780 ft | 223 kts | 85° |
| 2026-05-08 20:04 | 49.03057 | 2.69786 | 4311 ft | 245 kts | 86° |
| 2026-05-08 20:04 | 49.03196 | 2.72478 | 4847 ft | 261 kts | 86° |
| 2026-05-08 20:05 | 49.03333 | 2.75256 | 5349 ft | 265 kts | 86° |
| 2026-05-08 20:05 | 49.03469 | 2.78076 | 5857 ft | 268 kts | 87° |
| 2026-05-08 20:05 | 49.03604 | 2.80927 | 6373 ft | 272 kts | 87° |
| 2026-05-08 20:05 | 49.03742 | 2.83817 | 6868 ft | 276 kts | 87° |
| 2026-05-08 20:06 | 49.03881 | 2.86753 | 7365 ft | 280 kts | 87° |
| 2026-05-08 20:06 | 49.04022 | 2.89729 | 7858 ft | 283 kts | 87° |
| 2026-05-08 20:06 | 49.04146 | 2.92373 | 8316 ft | 286 kts | 86° |
| 2026-05-08 20:06 | 49.04313 | 2.95414 | 8958 ft | 291 kts | 85° |
| 2026-05-08 20:07 | 49.04542 | 2.98502 | 9645 ft | 296 kts | 84° |
| 2026-05-08 20:07 | 49.04788 | 3.01613 | 10302 ft | 304 kts | 84° |
| 2026-05-08 20:07 | 49.05045 | 3.04910 | 10955 ft | 316 kts | 84° |
| 2026-05-08 20:07 | 49.05293 | 3.08195 | 11592 ft | 327 kts | 84° |
| 2026-05-08 20:08 | 49.05527 | 3.11365 | 12199 ft | 336 kts | 84° |
| 2026-05-08 20:08 | 49.05789 | 3.14965 | 12882 ft | 346 kts | 84° |
| 2026-05-08 20:08 | 49.06054 | 3.18652 | 13558 ft | 355 kts | 84° |
| 2026-05-08 20:08 | 49.06326 | 3.22434 | 14252 ft | 361 kts | 84° |
| 2026-05-08 20:09 | 49.06610 | 3.26260 | 14955 ft | 366 kts | 81° |
| 2026-05-08 20:09 | 49.06788 | 3.27554 | 15201 ft | 367 kts | 75° |
| 2026-05-08 20:09 | 49.07271 | 3.30181 | 15712 ft | 370 kts | 74° |
| 2026-05-08 20:09 | 49.07990 | 3.33960 | 16450 ft | 373 kts | 73° |
| 2026-05-08 20:10 | 49.08720 | 3.37768 | 17204 ft | 375 kts | 73° |
| 2026-05-08 20:10 | 49.09424 | 3.41443 | 17951 ft | 377 kts | 73° |
| 2026-05-08 20:10 | 49.10177 | 3.45403 | 18707 ft | 378 kts | 73° |
| 2026-05-08 20:10 | 49.10901 | 3.49234 | 19396 ft | 379 kts | 73° |
| 2026-05-08 20:11 | 49.11633 | 3.53131 | 20117 ft | 380 kts | 72° |
| 2026-05-08 20:11 | 49.12358 | 3.57001 | 20839 ft | 379 kts | 72° |
| 2026-05-08 20:11 | 49.13083 | 3.60881 | 21582 ft | 379 kts | 72° |
| 2026-05-08 20:11 | 49.13803 | 3.64741 | 22346 ft | 377 kts | 71° |
| 2026-05-08 20:12 | 49.14510 | 3.68539 | 23118 ft | 375 kts | 71° |
| 2026-05-08 20:12 | 49.15229 | 3.72405 | 23872 ft | 373 kts | 70° |
| 2026-05-08 20:12 | 49.15926 | 3.76163 | 24533 ft | 370 kts | 70° |
| 2026-05-08 20:12 | 49.16624 | 3.79926 | 25221 ft | 366 kts | 70° |
| 2026-05-08 20:13 | 49.17316 | 3.83660 | 25808 ft | 365 kts | 70° |
| 2026-05-08 20:13 | 49.18016 | 3.87427 | 26189 ft | 370 kts | 70° |
| 2026-05-08 20:13 | 49.18713 | 3.91200 | 26783 ft | 367 kts | 69° |
| 2026-05-08 20:13 | 49.19400 | 3.94937 | 27423 ft | 363 kts | 69° |
| 2026-05-08 20:14 | 49.20077 | 3.98634 | 28071 ft | 358 kts | 69° |
| 2026-05-08 20:14 | 49.20742 | 4.02272 | 28735 ft | 352 kts | 68° |
| 2026-05-08 20:14 | 49.21393 | 4.05842 | 29418 ft | 344 kts | 68° |
| 2026-05-08 20:14 | 49.22033 | 4.09353 | 29933 ft | 343 kts | 68° |
| 2026-05-08 20:15 | 49.22679 | 4.12878 | 30213 ft | 346 kts | 67° |
| 2026-05-08 20:15 | 49.23329 | 4.16428 | 30476 ft | 347 kts | 67° |
| 2026-05-08 20:15 | 49.23980 | 4.19999 | 30747 ft | 349 kts | 67° |
| 2026-05-08 20:15 | 49.24625 | 4.23546 | 31006 ft | 352 kts | 68° |
| 2026-05-08 20:16 | 49.25281 | 4.27173 | 31268 ft | 354 kts | 68° |
| 2026-05-08 20:16 | 49.25939 | 4.30813 | 31527 ft | 356 kts | 68° |
| 2026-05-08 20:16 | 49.26585 | 4.34395 | 31773 ft | 358 kts | 68° |
| 2026-05-08 20:16 | 49.27249 | 4.38087 | 32013 ft | 361 kts | 68° |
| 2026-05-08 20:17 | 49.27910 | 4.41762 | 32257 ft | 363 kts | 68° |
| 2026-05-08 20:17 | 49.28582 | 4.45514 | 32485 ft | 366 kts | 68° |
| 2026-05-08 20:17 | 49.29257 | 4.49281 | 32738 ft | 368 kts | 68° |
| 2026-05-08 20:17 | 49.29934 | 4.53068 | 32959 ft | 370 kts | 68° |
| 2026-05-08 20:18 | 49.30614 | 4.56887 | 33203 ft | 372 kts | 68° |
| 2026-05-08 20:18 | 49.31298 | 4.60728 | 33413 ft | 375 kts | 68° |
| 2026-05-08 20:18 | 49.31985 | 4.64601 | 33631 ft | 377 kts | 68° |
| 2026-05-08 20:18 | 49.32655 | 4.68388 | 33850 ft | 379 kts | 68° |
| 2026-05-08 20:19 | 49.33347 | 4.72304 | 34049 ft | 381 kts | 68° |
| 2026-05-08 20:19 | 49.34041 | 4.76241 | 34221 ft | 383 kts | 69° |
| 2026-05-08 20:19 | 49.34737 | 4.80198 | 34412 ft | 385 kts | 69° |
| 2026-05-08 20:19 | 49.35437 | 4.84186 | 34583 ft | 387 kts | 69° |
| 2026-05-08 20:20 | 49.36136 | 4.88179 | 34755 ft | 389 kts | 69° |
| 2026-05-08 20:20 | 49.36839 | 4.92205 | 34925 ft | 391 kts | 70° |
| 2026-05-08 20:20 | 49.37514 | 4.96078 | 35085 ft | 393 kts | 70° |
| 2026-05-08 20:20 | 49.38222 | 5.00142 | 35251 ft | 394 kts | 70° |
| 2026-05-08 20:21 | 49.38921 | 5.04170 | 35404 ft | 396 kts | 70° |
| 2026-05-08 20:21 | 49.39628 | 5.08257 | 35569 ft | 398 kts | 70° |
| 2026-05-08 20:21 | 49.40339 | 5.12367 | 35728 ft | 399 kts | 71° |
| 2026-05-08 20:21 | 49.41051 | 5.16499 | 35880 ft | 401 kts | 71° |
| 2026-05-08 20:22 | 49.41763 | 5.20647 | 36029 ft | 402 kts | 71° |
| 2026-05-08 20:22 | 49.42475 | 5.24800 | 36180 ft | 404 kts | 71° |
| 2026-05-08 20:22 | 49.43190 | 5.28979 | 36335 ft | 405 kts | 72° |
| 2026-05-08 20:22 | 49.43906 | 5.33177 | 36475 ft | 406 kts | 72° |
| 2026-05-08 20:23 | 49.44622 | 5.37388 | 36617 ft | 408 kts | 72° |
| 2026-05-08 20:23 | 49.45340 | 5.41616 | 36750 ft | 409 kts | 72° |
| 2026-05-08 20:23 | 49.46058 | 5.45858 | 36888 ft | 411 kts | 72° |
| 2026-05-08 20:23 | 49.46776 | 5.50114 | 37026 ft | 412 kts | 72° |
| 2026-05-08 20:24 | 49.47495 | 5.54378 | 37156 ft | 413 kts | 73° |
| 2026-05-08 20:24 | 49.48216 | 5.58671 | 37274 ft | 415 kts | 73° |
| 2026-05-08 20:24 | 49.48937 | 5.62976 | 37400 ft | 416 kts | 73° |
| 2026-05-08 20:24 | 49.49661 | 5.67305 | 37523 ft | 417 kts | 73° |
| 2026-05-08 20:25 | 49.50383 | 5.71630 | 37645 ft | 419 kts | 73° |
| 2026-05-08 20:25 | 49.51108 | 5.75984 | 37756 ft | 420 kts | 73° |
| 2026-05-08 20:25 | 49.51947 | 5.80280 | 37870 ft | 420 kts | 68° |
| 2026-05-08 20:25 | 49.52964 | 5.84509 | 37976 ft | 421 kts | 67° |
| 2026-05-08 20:26 | 49.53989 | 5.88673 | 38100 ft | 422 kts | 67° |
| 2026-05-08 20:26 | 49.55049 | 5.92895 | 38204 ft | 423 kts | 67° |
| 2026-05-08 20:26 | 49.56110 | 5.97128 | 38314 ft | 424 kts | 67° |
| 2026-05-08 20:26 | 49.57167 | 6.01376 | 38416 ft | 425 kts | 67° |
| 2026-05-08 20:27 | 49.59280 | 6.09938 | 38616 ft | 428 kts | 68° |
| 2026-05-08 20:27 | 49.61404 | 6.18520 | 38790 ft | 429 kts | 64° |
| 2026-05-08 20:28 | 49.64534 | 6.26288 | 38916 ft | 427 kts | 46° |
| 2026-05-08 20:28 | 49.68975 | 6.32254 | 39024 ft | 424 kts | 29° |
| 2026-05-08 20:29 | 49.74189 | 6.36563 | 39030 ft | 428 kts | 25° |
| 2026-05-08 20:29 | 49.79514 | 6.40862 | 39031 ft | 435 kts | 25° |
| 2026-05-08 20:30 | 49.84913 | 6.45240 | 39029 ft | 441 kts | 25° |
| 2026-05-08 20:30 | 49.90367 | 6.49671 | 38971 ft | 450 kts | 25° |
| 2026-05-08 20:31 | 49.93156 | 6.51963 | 38847 ft | 457 kts | 27° |
| 2026-05-08 20:31 | 49.95859 | 6.54589 | 38741 ft | 459 kts | 33° |
| 2026-05-08 20:31 | 49.98406 | 6.57582 | 38635 ft | 459 kts | 38° |
| 2026-05-08 20:31 | 50.00802 | 6.60929 | 38742 ft | 459 kts | 43° |
| 2026-05-08 20:32 | 50.02966 | 6.64489 | 38880 ft | 459 kts | 47° |
| 2026-05-08 20:32 | 50.05056 | 6.68253 | 38945 ft | 461 kts | 50° |
| 2026-05-08 20:32 | 50.08251 | 6.76964 | 38975 ft | 467 kts | 69° |
| 2026-05-08 20:33 | 50.09506 | 6.86852 | 38999 ft | 468 kts | 88° |
| 2026-05-08 20:33 | 50.10602 | 6.96754 | 39000 ft | 466 kts | 66° |
| 2026-05-08 20:34 | 50.13485 | 7.05794 | 38997 ft | 466 kts | 62° |
| 2026-05-08 20:35 | 50.17356 | 7.19694 | 38999 ft | 466 kts | 68° |
| 2026-05-08 20:35 | 50.19661 | 7.29100 | 39001 ft | 466 kts | 68° |
| 2026-05-08 20:36 | 50.21927 | 7.38463 | 38989 ft | 467 kts | 68° |
| 2026-05-08 20:36 | 50.24217 | 7.47940 | 38992 ft | 467 kts | 68° |
| 2026-05-08 20:37 | 50.26507 | 7.57450 | 38990 ft | 467 kts | 68° |
| 2026-05-08 20:37 | 50.28796 | 7.66947 | 38998 ft | 467 kts | 68° |
| 2026-05-08 20:38 | 50.31101 | 7.76439 | 38995 ft | 467 kts | 68° |
| 2026-05-08 20:38 | 50.33285 | 7.85447 | 39005 ft | 467 kts | 68° |
| 2026-05-08 20:39 | 50.35576 | 7.94893 | 39005 ft | 467 kts | 68° |
| 2026-05-08 20:39 | 50.37884 | 8.04417 | 39005 ft | 468 kts | 68° |
| 2026-05-08 20:40 | 50.40190 | 8.13951 | 39001 ft | 467 kts | 68° |
| 2026-05-08 20:40 | 50.42438 | 8.23273 | 39008 ft | 468 kts | 68° |
| 2026-05-08 20:41 | 50.44732 | 8.32824 | 39009 ft | 468 kts | 68° |
| 2026-05-08 20:41 | 50.47025 | 8.42388 | 39010 ft | 468 kts | 68° |
| 2026-05-08 20:42 | 50.49314 | 8.51960 | 39007 ft | 468 kts | 68° |
| 2026-05-08 20:42 | 50.51597 | 8.61538 | 39009 ft | 469 kts | 68° |
| 2026-05-08 20:43 | 50.53881 | 8.71139 | 39007 ft | 469 kts | 69° |
| 2026-05-08 20:43 | 50.56161 | 8.80738 | 38683 ft | 469 kts | 69° |
| 2026-05-08 20:43 | 50.57300 | 8.85549 | 38135 ft | 469 kts | 69° |
| 2026-05-08 20:44 | 50.58438 | 8.90344 | 37598 ft | 467 kts | 69° |
| 2026-05-08 20:44 | 50.59572 | 8.95117 | 37072 ft | 464 kts | 69° |
| 2026-05-08 20:44 | 50.60699 | 8.99853 | 36564 ft | 461 kts | 69° |
| 2026-05-08 20:44 | 50.61827 | 9.04587 | 35971 ft | 461 kts | 69° |
| 2026-05-08 20:45 | 50.62956 | 9.09316 | 35363 ft | 461 kts | 69° |
| 2026-05-08 20:45 | 50.63706 | 9.12451 | 34970 ft | 461 kts | 69° |
| 2026-05-08 20:45 | 50.65218 | 9.18747 | 34189 ft | 458 kts | 69° |